sensor_id;sensor_type;location;lat;lon;timestamp;temperature;humidity
31799;DHT22;18374;51.136;3.502;2023-04-01T00:01:00;9.40;99.90
31799;DHT22;18374;51.136;3.502;2023-04-01T00:03:29;9.40;99.90
31799;DHT22;18374;51.136;3.502;2023-04-01T00:05:59;9.40;99.90
31799;DHT22;18374;51.136;3.502;2023-04-01T00:08:28;9.30;99.90
31799;DHT22;18374;51.136;3.502;2023-04-01T00:10:56;9.30;99.90
31799;DHT22;18374;51.136;3.502;2023-04-01T00:13:25;9.30;99.90
31799;DHT22;18374;51.136;3.502;2023-04-01T00:15:54;9.30;99.90
31799;DHT22;18374;51.136;3.502;2023-04-01T00:18:24;9.30;99.90
31799;DHT22;18374;51.136;3.502;2023-04-01T00:20:52;9.30;99.90
31799;DHT22;18374;51.136;3.502;2023-04-01T00:23:20;9.30;99.90
31799;DHT22;18374;51.136;3.502;2023-04-01T00:25:49;9.30;99.90
31799;DHT22;18374;51.136;3.502;2023-04-01T00:28:18;9.20;99.90
31799;DHT22;18374;51.136;3.502;2023-04-01T00:30:47;9.20;99.90
31799;DHT22;18374;51.136;3.502;2023-04-01T00:33:15;9.20;99.90
31799;DHT22;18374;51.136;3.502;2023-04-01T00:35:44;9.10;99.90
31799;DHT22;18374;51.136;3.502;2023-04-01T00:38:12;9.10;99.90
31799;DHT22;18374;51.136;3.502;2023-04-01T00:40:43;9.10;99.90
31799;DHT22;18374;51.136;3.502;2023-04-01T00:43:17;9.10;99.90
31799;DHT22;18374;51.136;3.502;2023-04-01T00:45:48;9.10;99.90
31799;DHT22;18374;51.136;3.502;2023-04-01T00:48:19;9.00;99.90
31799;DHT22;18374;51.136;3.502;2023-04-01T00:50:56;9.00;99.90
31799;DHT22;18374;51.136;3.502;2023-04-01T00:53:28;9.00;99.90
31799;DHT22;18374;51.136;3.502;2023-04-01T00:56:04;9.00;99.90
31799;DHT22;18374;51.136;3.502;2023-04-01T00:58:38;9.00;99.90
31799;DHT22;18374;51.136;3.502;2023-04-01T01:01:08;9.00;99.90
31799;DHT22;18374;51.136;3.502;2023-04-01T01:03:36;9.00;99.90
31799;DHT22;18374;51.136;3.502;2023-04-01T01:35:56;8.90;99.90
31799;DHT22;18374;51.136;3.502;2023-04-01T01:38:29;8.90;99.90
31799;DHT22;18374;51.136;3.502;2023-04-01T01:41:01;8.90;99.90
31799;DHT22;18374;51.136;3.502;2023-04-01T01:43:38;8.90;99.90
31799;DHT22;18374;51.136;3.502;2023-04-01T01:46:12;8.90;99.90
31799;DHT22;18374;51.136;3.502;2023-04-01T01:48:43;8.90;99.90
31799;DHT22;18374;51.136;3.502;2023-04-01T01:51:12;8.90;99.90
31799;DHT22;18374;51.136;3.502;2023-04-01T01:53:40;8.90;99.90
31799;DHT22;18374;51.136;3.502;2023-04-01T01:56:10;8.90;99.90
31799;DHT22;18374;51.136;3.502;2023-04-01T01:58:44;8.90;99.90
31799;DHT22;18374;51.136;3.502;2023-04-01T02:01:24;8.90;99.90
31799;DHT22;18374;51.136;3.502;2023-04-01T02:03:57;8.90;99.90
31799;DHT22;18374;51.136;3.502;2023-04-01T02:06:30;8.90;99.90
31799;DHT22;18374;51.136;3.502;2023-04-01T02:09:10;8.90;99.90
31799;DHT22;18374;51.136;3.502;2023-04-01T02:11:48;8.90;99.90
31799;DHT22;18374;51.136;3.502;2023-04-01T02:14:30;8.90;99.90
31799;DHT22;18374;51.136;3.502;2023-04-01T02:17:15;8.90;99.90
31799;DHT22;18374;51.136;3.502;2023-04-01T02:19:56;8.90;99.90
31799;DHT22;18374;51.136;3.502;2023-04-01T02:22:29;8.90;99.90
31799;DHT22;18374;51.136;3.502;2023-04-01T02:25:06;8.90;99.90
31799;DHT22;18374;51.136;3.502;2023-04-01T02:27:36;8.90;99.90
31799;DHT22;18374;51.136;3.502;2023-04-01T02:30:05;8.90;99.90
31799;DHT22;18374;51.136;3.502;2023-04-01T02:32:35;9.10;99.90
31799;DHT22;18374;51.136;3.502;2023-04-01T02:35:08;8.90;99.90
31799;DHT22;18374;51.136;3.502;2023-04-01T02:37:39;8.90;99.90
31799;DHT22;18374;51.136;3.502;2023-04-01T02:40:12;8.90;99.90
31799;DHT22;18374;51.136;3.502;2023-04-01T02:42:42;8.90;99.90
31799;DHT22;18374;51.136;3.502;2023-04-01T02:45:10;8.90;99.90
31799;DHT22;18374;51.136;3.502;2023-04-01T02:47:39;8.90;99.90
31799;DHT22;18374;51.136;3.502;2023-04-01T02:50:07;8.90;99.90
31799;DHT22;18374;51.136;3.502;2023-04-01T02:52:36;8.90;99.90
31799;DHT22;18374;51.136;3.502;2023-04-01T02:55:05;8.90;99.90
31799;DHT22;18374;51.136;3.502;2023-04-01T02:57:33;8.90;99.90
31799;DHT22;18374;51.136;3.502;2023-04-01T03:00:01;8.90;99.90
31799;DHT22;18374;51.136;3.502;2023-04-01T03:02:30;8.90;99.90
31799;DHT22;18374;51.136;3.502;2023-04-01T03:04:58;8.90;99.90
31799;DHT22;18374;51.136;3.502;2023-04-01T03:07:26;8.90;99.90
31799;DHT22;18374;51.136;3.502;2023-04-01T03:09:53;8.90;99.90
31799;DHT22;18374;51.136;3.502;2023-04-01T03:12:22;8.80;99.90
31799;DHT22;18374;51.136;3.502;2023-04-01T03:14:51;8.80;99.90
31799;DHT22;18374;51.136;3.502;2023-04-01T03:17:19;8.80;99.90
31799;DHT22;18374;51.136;3.502;2023-04-01T03:19:47;8.80;99.90
31799;DHT22;18374;51.136;3.502;2023-04-01T03:22:14;8.80;99.90
31799;DHT22;18374;51.136;3.502;2023-04-01T03:24:43;8.80;99.90
31799;DHT22;18374;51.136;3.502;2023-04-01T03:27:12;8.80;99.90
31799;DHT22;18374;51.136;3.502;2023-04-01T03:29:40;8.80;99.90
31799;DHT22;18374;51.136;3.502;2023-04-01T03:32:08;8.80;99.90
31799;DHT22;18374;51.136;3.502;2023-04-01T03:34:36;8.80;99.90
31799;DHT22;18374;51.136;3.502;2023-04-01T03:37:04;8.80;99.90
31799;DHT22;18374;51.136;3.502;2023-04-01T03:39:33;8.80;99.90
31799;DHT22;18374;51.136;3.502;2023-04-01T03:42:00;8.80;99.90
31799;DHT22;18374;51.136;3.502;2023-04-01T03:44:32;8.80;99.90
31799;DHT22;18374;51.136;3.502;2023-04-01T03:47:00;8.80;99.90
31799;DHT22;18374;51.136;3.502;2023-04-01T03:49:28;8.80;99.90
31799;DHT22;18374;51.136;3.502;2023-04-01T03:51:56;8.80;99.90
31799;DHT22;18374;51.136;3.502;2023-04-01T03:54:24;8.80;99.90
31799;DHT22;18374;51.136;3.502;2023-04-01T03:56:52;8.80;99.90
31799;DHT22;18374;51.136;3.502;2023-04-01T03:59:20;8.80;99.90
31799;DHT22;18374;51.136;3.502;2023-04-01T04:01:48;8.80;99.90
31799;DHT22;18374;51.136;3.502;2023-04-01T04:04:16;8.80;99.90
31799;DHT22;18374;51.136;3.502;2023-04-01T04:06:45;8.80;99.90
31799;DHT22;18374;51.136;3.502;2023-04-01T04:09:13;8.80;99.90
31799;DHT22;18374;51.136;3.502;2023-04-01T04:11:41;8.70;99.90
31799;DHT22;18374;51.136;3.502;2023-04-01T04:14:08;8.70;99.90
31799;DHT22;18374;51.136;3.502;2023-04-01T04:16:36;8.70;99.90
31799;DHT22;18374;51.136;3.502;2023-04-01T04:19:05;8.70;99.90
31799;DHT22;18374;51.136;3.502;2023-04-01T04:21:33;8.70;99.90
31799;DHT22;18374;51.136;3.502;2023-04-01T04:24:02;8.70;99.90
31799;DHT22;18374;51.136;3.502;2023-04-01T04:26:49;8.80;99.90
31799;DHT22;18374;51.136;3.502;2023-04-01T04:29:17;8.80;99.90
31799;DHT22;18374;51.136;3.502;2023-04-01T04:31:46;8.80;99.90
31799;DHT22;18374;51.136;3.502;2023-04-01T04:34:14;8.80;99.90
31799;DHT22;18374;51.136;3.502;2023-04-01T04:36:43;8.80;99.90
31799;DHT22;18374;51.136;3.502;2023-04-01T04:39:10;8.80;99.90
31799;DHT22;18374;51.136;3.502;2023-04-01T04:41:41;8.80;99.90
31799;DHT22;18374;51.136;3.502;2023-04-01T04:44:09;8.70;99.90
31799;DHT22;18374;51.136;3.502;2023-04-01T04:46:37;8.70;99.90
31799;DHT22;18374;51.136;3.502;2023-04-01T04:49:13;8.70;99.90
31799;DHT22;18374;51.136;3.502;2023-04-01T04:51:41;8.70;99.90
31799;DHT22;18374;51.136;3.502;2023-04-01T04:54:10;8.70;99.90
31799;DHT22;18374;51.136;3.502;2023-04-01T04:56:51;8.70;99.90
31799;DHT22;18374;51.136;3.502;2023-04-01T04:59:21;8.60;99.90
31799;DHT22;18374;51.136;3.502;2023-04-01T05:02:18;8.60;99.90
31799;DHT22;18374;51.136;3.502;2023-04-01T05:04:47;8.60;99.90
31799;DHT22;18374;51.136;3.502;2023-04-01T05:07:15;8.60;99.90
31799;DHT22;18374;51.136;3.502;2023-04-01T05:09:43;8.60;99.90
31799;DHT22;18374;51.136;3.502;2023-04-01T05:12:13;8.60;99.90
31799;DHT22;18374;51.136;3.502;2023-04-01T05:15:08;8.50;99.90
31799;DHT22;18374;51.136;3.502;2023-04-01T05:17:36;8.50;99.90
31799;DHT22;18374;51.136;3.502;2023-04-01T05:20:04;8.50;99.90
31799;DHT22;18374;51.136;3.502;2023-04-01T05:22:33;8.50;99.90
31799;DHT22;18374;51.136;3.502;2023-04-01T05:25:01;8.50;99.90
31799;DHT22;18374;51.136;3.502;2023-04-01T05:27:29;8.50;99.90
31799;DHT22;18374;51.136;3.502;2023-04-01T05:29:57;8.50;99.90
31799;DHT22;18374;51.136;3.502;2023-04-01T05:32:40;8.50;99.90
31799;DHT22;18374;51.136;3.502;2023-04-01T05:35:08;8.50;99.90
31799;DHT22;18374;51.136;3.502;2023-04-01T05:37:37;8.50;99.90
31799;DHT22;18374;51.136;3.502;2023-04-01T05:40:05;8.50;99.90
31799;DHT22;18374;51.136;3.502;2023-04-01T05:42:34;8.50;99.90
31799;DHT22;18374;51.136;3.502;2023-04-01T05:45:05;8.50;99.90
31799;DHT22;18374;51.136;3.502;2023-04-01T05:48:05;8.50;99.90
31799;DHT22;18374;51.136;3.502;2023-04-01T05:50:40;8.50;99.90
31799;DHT22;18374;51.136;3.502;2023-04-01T05:53:10;8.40;99.90
31799;DHT22;18374;51.136;3.502;2023-04-01T05:55:41;8.40;99.90
31799;DHT22;18374;51.136;3.502;2023-04-01T05:58:09;8.40;99.90
31799;DHT22;18374;51.136;3.502;2023-04-01T06:00:40;8.40;99.90
31799;DHT22;18374;51.136;3.502;2023-04-01T06:03:07;8.40;99.90
31799;DHT22;18374;51.136;3.502;2023-04-01T06:05:44;8.40;99.90
31799;DHT22;18374;51.136;3.502;2023-04-01T06:08:17;8.50;99.90
31799;DHT22;18374;51.136;3.502;2023-04-01T06:22:51;8.40;99.90
31799;DHT22;18374;51.136;3.502;2023-04-01T06:25:43;8.40;99.90
31799;DHT22;18374;51.136;3.502;2023-04-01T06:31:34;8.40;99.90
31799;DHT22;18374;51.136;3.502;2023-04-01T06:46:40;8.40;99.90
31799;DHT22;18374;51.136;3.502;2023-04-01T06:53:25;8.50;99.90
31799;DHT22;18374;51.136;3.502;2023-04-01T06:56:11;8.50;99.90
31799;DHT22;18374;51.136;3.502;2023-04-01T06:59:10;8.50;99.90
31799;DHT22;18374;51.136;3.502;2023-04-01T07:01:49;8.50;99.90
31799;DHT22;18374;51.136;3.502;2023-04-01T07:10:21;8.50;99.90
31799;DHT22;18374;51.136;3.502;2023-04-01T07:13:41;8.50;99.90
31799;DHT22;18374;51.136;3.502;2023-04-01T07:22:10;8.40;99.90
31799;DHT22;18374;51.136;3.502;2023-04-01T07:25:11;8.40;99.90
31799;DHT22;18374;51.136;3.502;2023-04-01T07:27:45;8.40;99.90
31799;DHT22;18374;51.136;3.502;2023-04-01T07:30:22;8.50;99.90
31799;DHT22;18374;51.136;3.502;2023-04-01T07:33:05;8.40;99.90
31799;DHT22;18374;51.136;3.502;2023-04-01T07:35:45;8.50;99.90
31799;DHT22;18374;51.136;3.502;2023-04-01T07:50:23;8.50;99.90
31799;DHT22;18374;51.136;3.502;2023-04-01T07:58:55;8.60;99.90
31799;DHT22;18374;51.136;3.502;2023-04-01T08:02:15;8.60;99.90
31799;DHT22;18374;51.136;3.502;2023-04-01T08:05:02;8.70;99.90
31799;DHT22;18374;51.136;3.502;2023-04-01T08:14:17;8.60;99.90
31799;DHT22;18374;51.136;3.502;2023-04-01T08:17:31;8.60;99.90
31799;DHT22;18374;51.136;3.502;2023-04-01T08:20:39;8.60;99.90
31799;DHT22;18374;51.136;3.502;2023-04-01T08:23:29;8.60;99.90
31799;DHT22;18374;51.136;3.502;2023-04-01T08:29:20;8.70;99.90
31799;DHT22;18374;51.136;3.502;2023-04-01T08:32:10;8.80;99.90
31799;DHT22;18374;51.136;3.502;2023-04-01T08:34:44;8.80;99.90
31799;DHT22;18374;51.136;3.502;2023-04-01T08:37:30;8.80;99.90
31799;DHT22;18374;51.136;3.502;2023-04-01T08:40:11;8.80;99.90
31799;DHT22;18374;51.136;3.502;2023-04-01T08:45:56;9.00;99.90
31799;DHT22;18374;51.136;3.502;2023-04-01T08:51:48;9.10;99.90
31799;DHT22;18374;51.136;3.502;2023-04-01T08:54:46;9.00;99.90
31799;DHT22;18374;51.136;3.502;2023-04-01T08:57:43;9.10;99.90
31799;DHT22;18374;51.136;3.502;2023-04-01T09:00:56;8.90;99.90
31799;DHT22;18374;51.136;3.502;2023-04-01T09:03:58;8.80;99.90
31799;DHT22;18374;51.136;3.502;2023-04-01T09:21:57;8.70;99.90
31799;DHT22;18374;51.136;3.502;2023-04-01T09:27:57;8.80;99.90
31799;DHT22;18374;51.136;3.502;2023-04-01T09:43:59;8.80;99.90
31799;DHT22;18374;51.136;3.502;2023-04-01T09:53:04;8.90;99.90
31799;DHT22;18374;51.136;3.502;2023-04-01T10:11:12;9.20;99.90
31799;DHT22;18374;51.136;3.502;2023-04-01T10:13:53;9.10;99.90
31799;DHT22;18374;51.136;3.502;2023-04-01T10:20:12;9.10;99.90
31799;DHT22;18374;51.136;3.502;2023-04-01T11:12:09;8.90;99.90
31799;DHT22;18374;51.136;3.502;2023-04-01T11:15:03;8.90;99.90
31799;DHT22;18374;51.136;3.502;2023-04-01T11:28:05;8.90;99.90
31799;DHT22;18374;51.136;3.502;2023-04-01T11:47:03;8.90;99.90
31799;DHT22;18374;51.136;3.502;2023-04-01T12:00:12;9.20;99.90
31799;DHT22;18374;51.136;3.502;2023-04-01T12:03:17;9.30;99.90
31799;DHT22;18374;51.136;3.502;2023-04-01T12:15:58;9.20;99.90
31799;DHT22;18374;51.136;3.502;2023-04-01T12:19:01;9.10;99.90
31799;DHT22;18374;51.136;3.502;2023-04-01T12:21:47;9.00;99.90
31799;DHT22;18374;51.136;3.502;2023-04-01T12:27:41;8.90;99.90
31799;DHT22;18374;51.136;3.502;2023-04-01T12:30:49;8.90;99.90
31799;DHT22;18374;51.136;3.502;2023-04-01T12:37:07;8.90;99.90
31799;DHT22;18374;51.136;3.502;2023-04-01T12:45:52;9.00;99.90
31799;DHT22;18374;51.136;3.502;2023-04-01T12:52:44;9.00;99.90
31799;DHT22;18374;51.136;3.502;2023-04-01T12:55:16;9.00;99.90
31799;DHT22;18374;51.136;3.502;2023-04-01T12:57:50;9.00;99.90
31799;DHT22;18374;51.136;3.502;2023-04-01T13:04:01;9.00;99.90
31799;DHT22;18374;51.136;3.502;2023-04-01T13:06:57;9.00;99.90
31799;DHT22;18374;51.136;3.502;2023-04-01T13:15:27;8.90;99.90
31799;DHT22;18374;51.136;3.502;2023-04-01T13:27:25;8.90;99.90
31799;DHT22;18374;51.136;3.502;2023-04-01T13:39:35;8.80;99.90
31799;DHT22;18374;51.136;3.502;2023-04-01T13:45:19;8.80;99.90
31799;DHT22;18374;51.136;3.502;2023-04-01T13:48:14;8.80;99.90
31799;DHT22;18374;51.136;3.502;2023-04-01T13:54:36;8.80;99.90
31799;DHT22;18374;51.136;3.502;2023-04-01T14:07:42;8.80;99.90
31799;DHT22;18374;51.136;3.502;2023-04-01T14:10:42;8.70;99.90
31799;DHT22;18374;51.136;3.502;2023-04-01T14:13:34;8.60;99.90
31799;DHT22;18374;51.136;3.502;2023-04-01T14:22:38;8.60;99.90
31799;DHT22;18374;51.136;3.502;2023-04-01T14:25:33;8.60;99.90
31799;DHT22;18374;51.136;3.502;2023-04-01T14:30:59;8.60;99.90
31799;DHT22;18374;51.136;3.502;2023-04-01T14:33:50;8.70;99.90
31799;DHT22;18374;51.136;3.502;2023-04-01T14:50:44;8.90;99.90
31799;DHT22;18374;51.136;3.502;2023-04-01T14:55:58;8.80;99.90
31799;DHT22;18374;51.136;3.502;2023-04-01T14:58:46;8.80;99.90
31799;DHT22;18374;51.136;3.502;2023-04-01T15:01:40;8.80;99.90
31799;DHT22;18374;51.136;3.502;2023-04-01T15:13:14;8.80;99.90
31799;DHT22;18374;51.136;3.502;2023-04-01T15:22:32;8.80;99.90
31799;DHT22;18374;51.136;3.502;2023-04-01T15:28:56;8.80;99.90
31799;DHT22;18374;51.136;3.502;2023-04-01T15:31:59;8.70;99.90
31799;DHT22;18374;51.136;3.502;2023-04-01T15:35:27;8.70;99.90
31799;DHT22;18374;51.136;3.502;2023-04-01T15:43:44;8.90;99.90
31799;DHT22;18374;51.136;3.502;2023-04-01T15:46:21;8.90;99.90
31799;DHT22;18374;51.136;3.502;2023-04-01T15:49:28;8.80;99.90
31799;DHT22;18374;51.136;3.502;2023-04-01T15:58:02;8.80;99.90
31799;DHT22;18374;51.136;3.502;2023-04-01T16:03:52;8.70;99.90
31799;DHT22;18374;51.136;3.502;2023-04-01T16:20:55;8.70;99.90
31799;DHT22;18374;51.136;3.502;2023-04-01T16:23:48;8.70;99.90
31799;DHT22;18374;51.136;3.502;2023-04-01T16:26:31;8.70;99.90
31799;DHT22;18374;51.136;3.502;2023-04-01T16:32:36;8.60;99.90
31799;DHT22;18374;51.136;3.502;2023-04-01T16:43:55;8.60;99.90
31799;DHT22;18374;51.136;3.502;2023-04-01T16:46:43;8.60;99.90
31799;DHT22;18374;51.136;3.502;2023-04-01T16:57:18;8.60;99.90
31799;DHT22;18374;51.136;3.502;2023-04-01T17:00:27;8.60;99.90
31799;DHT22;18374;51.136;3.502;2023-04-01T17:05:44;8.60;99.90
31799;DHT22;18374;51.136;3.502;2023-04-01T17:09:10;8.60;99.90
31799;DHT22;18374;51.136;3.502;2023-04-01T17:27:29;8.40;99.90
31799;DHT22;18374;51.136;3.502;2023-04-01T17:30:24;8.50;99.90
31799;DHT22;18374;51.136;3.502;2023-04-01T17:33:15;8.40;99.90
31799;DHT22;18374;51.136;3.502;2023-04-01T17:36:19;8.40;99.90
31799;DHT22;18374;51.136;3.502;2023-04-01T17:39:12;8.30;99.90
31799;DHT22;18374;51.136;3.502;2023-04-01T17:59:36;8.20;99.90
31799;DHT22;18374;51.136;3.502;2023-04-01T18:08:06;8.20;99.90
31799;DHT22;18374;51.136;3.502;2023-04-01T18:19:39;8.10;99.90
31799;DHT22;18374;51.136;3.502;2023-04-01T18:25:43;8.10;99.90
31799;DHT22;18374;51.136;3.502;2023-04-01T18:33:34;8.10;99.90
31799;DHT22;18374;51.136;3.502;2023-04-01T18:45:30;8.00;99.90
31799;DHT22;18374;51.136;3.502;2023-04-01T18:54:21;8.00;99.90
31799;DHT22;18374;51.136;3.502;2023-04-01T18:56:59;8.00;99.90
31799;DHT22;18374;51.136;3.502;2023-04-01T18:59:35;8.00;99.90
31799;DHT22;18374;51.136;3.502;2023-04-01T19:02:40;8.00;99.90
31799;DHT22;18374;51.136;3.502;2023-04-01T19:05:19;8.00;99.90
31799;DHT22;18374;51.136;3.502;2023-04-01T19:07:56;8.00;99.90
31799;DHT22;18374;51.136;3.502;2023-04-01T19:13:51;8.00;99.90
31799;DHT22;18374;51.136;3.502;2023-04-01T19:21:47;8.00;99.90
31799;DHT22;18374;51.136;3.502;2023-04-01T19:27:42;8.00;99.90
31799;DHT22;18374;51.136;3.502;2023-04-01T19:33:16;8.00;99.90
31799;DHT22;18374;51.136;3.502;2023-04-01T19:50:55;8.00;99.90
31799;DHT22;18374;51.136;3.502;2023-04-01T19:53:28;8.00;99.90
31799;DHT22;18374;51.136;3.502;2023-04-01T19:59:15;8.00;99.90
31799;DHT22;18374;51.136;3.502;2023-04-01T20:02:19;8.00;99.90
31799;DHT22;18374;51.136;3.502;2023-04-01T20:04:48;8.00;99.90
31799;DHT22;18374;51.136;3.502;2023-04-01T20:07:41;7.90;99.90
31799;DHT22;18374;51.136;3.502;2023-04-01T20:16:09;8.00;99.90
31799;DHT22;18374;51.136;3.502;2023-04-01T20:18:59;8.00;99.90
31799;DHT22;18374;51.136;3.502;2023-04-01T20:21:36;7.90;99.90
31799;DHT22;18374;51.136;3.502;2023-04-01T20:26:48;7.90;99.90
31799;DHT22;18374;51.136;3.502;2023-04-01T20:36:00;7.90;99.90
31799;DHT22;18374;51.136;3.502;2023-04-01T20:41:54;7.90;99.90
31799;DHT22;18374;51.136;3.502;2023-04-01T20:53:20;7.90;99.90
31799;DHT22;18374;51.136;3.502;2023-04-01T20:56:26;7.90;99.90
31799;DHT22;18374;51.136;3.502;2023-04-01T21:02:20;7.90;99.90
31799;DHT22;18374;51.136;3.502;2023-04-01T21:14:42;7.90;99.90
31799;DHT22;18374;51.136;3.502;2023-04-01T21:32:59;7.80;99.90
31799;DHT22;18374;51.136;3.502;2023-04-01T21:36:06;7.80;99.90
31799;DHT22;18374;51.136;3.502;2023-04-01T21:38:51;7.80;99.90
31799;DHT22;18374;51.136;3.502;2023-04-01T22:00:43;7.80;99.90
31799;DHT22;18374;51.136;3.502;2023-04-01T22:06:15;7.70;99.90
31799;DHT22;18374;51.136;3.502;2023-04-01T22:08:59;7.80;99.90
31799;DHT22;18374;51.136;3.502;2023-04-01T22:14:16;7.80;99.90
31799;DHT22;18374;51.136;3.502;2023-04-01T22:17:32;7.70;99.90
31799;DHT22;18374;51.136;3.502;2023-04-01T22:24:21;7.70;99.90
31799;DHT22;18374;51.136;3.502;2023-04-01T22:26:26;7.70;99.90
31799;DHT22;18374;51.136;3.502;2023-04-01T22:34:23;7.70;99.90
31799;DHT22;18374;51.136;3.502;2023-04-01T22:40:12;7.70;99.90
31799;DHT22;18374;51.136;3.502;2023-04-01T22:42:59;7.70;99.90
31799;DHT22;18374;51.136;3.502;2023-04-01T22:45:51;7.70;99.90
31799;DHT22;18374;51.136;3.502;2023-04-01T22:48:37;7.70;99.90
31799;DHT22;18374;51.136;3.502;2023-04-01T22:56:54;7.70;99.90
31799;DHT22;18374;51.136;3.502;2023-04-01T23:02:06;7.70;99.90
31799;DHT22;18374;51.136;3.502;2023-04-01T23:04:49;7.70;99.90
31799;DHT22;18374;51.136;3.502;2023-04-01T23:12:58;7.70;99.90
31799;DHT22;18374;51.136;3.502;2023-04-01T23:15:27;7.60;99.90
31799;DHT22;18374;51.136;3.502;2023-04-01T23:18:12;7.60;99.90
31799;DHT22;18374;51.136;3.502;2023-04-01T23:26:50;7.60;99.90
31799;DHT22;18374;51.136;3.502;2023-04-01T23:29:22;7.60;99.90
31799;DHT22;18374;51.136;3.502;2023-04-01T23:32:03;7.60;99.90
31799;DHT22;18374;51.136;3.502;2023-04-01T23:34:34;7.60;99.90
31799;DHT22;18374;51.136;3.502;2023-04-01T23:37:05;7.60;99.90
31799;DHT22;18374;51.136;3.502;2023-04-01T23:39:39;7.60;99.90
31799;DHT22;18374;51.136;3.502;2023-04-01T23:45:12;7.70;99.90
31799;DHT22;18374;51.136;3.502;2023-04-01T23:47:44;7.70;99.90
31799;DHT22;18374;51.136;3.502;2023-04-01T23:50:20;7.70;99.90
31799;DHT22;18374;51.136;3.502;2023-04-01T23:53:17;7.60;99.90
31799;DHT22;18374;51.136;3.502;2023-04-01T23:55:46;7.70;99.90
31799;DHT22;18374;51.136;3.502;2023-04-01T23:58:22;7.60;99.90
